Flight Track Log - Related Links

Times and Time Zones

All times are in EST time to prevent confusion due to time zone crossing. See the SWA3232 flight status page for this flight to view local times or setup timezone preferences in your user account.

Time Position Orientation Groundspeed Altitude Reporting Facility
EST Latitude Longitude Course Direction KTS MPH feet Rate Location/Type
Wed 01:05:20 PM 26.5056 -81.8867 346° North 272 313 6,500  Level Miami Center
Wed 01:06:20 PM 26.5714 -81.9106 342° North 319 367 9,800 1,800 Climbing Miami Center
Wed 01:07:20 PM 26.6631 -81.9192 355° North 319 367 10,100 1,950 Climbing Miami Center
Wed 01:08:20 PM 26.7661 -81.8981 10° North 329 379 13,700 3,700 Climbing Miami Center
Wed 01:09:00 PM 27.2371 -81.8106 346° North  Level FlightAware Approximate
Wed 01:09:20 PM 26.8556 -81.8458 28° Northeast 348 400 17,500  Level Miami Center
Wed 01:10:20 PM 26.9322 -81.7981 29° Northeast 348 400 20,600 2,500 Climbing Miami Center
Wed 01:11:20 PM 27.0319 -81.7533 22° Northeast 355 409 22,500 2,250 Climbing Miami Center
Wed 01:12:20 PM 27.1539 -81.7886 346° North 368 423 25,100 2,550 Climbing Miami Center
Wed 01:13:20 PM 27.2653 -81.8261 343° North 398 458 27,600 2,350 Climbing Miami Center
Wed 01:14:20 PM 27.3789 -81.8592 346° North 421 484 29,800 1,900 Climbing Miami Center
Wed 01:15:20 PM 27.4886 -81.8217 17° North 427 491 31,400 1,600 Climbing Miami Center
Wed 01:16:20 PM 27.6117 -81.7661 22° Northeast 441 507 33,000 1,900 Climbing Miami Center
Wed 01:17:20 PM 27.7494 -81.7042 22° Northeast 471 542 35,200 1,500 Climbing Miami Center
Wed 01:18:20 PM 27.8703 -81.6483 22° Northeast 471 542 36,000 400 Climbing Miami Center
Wed 01:19:20 PM 27.9889 -81.5944 22° Northeast 466 536 36,000  Level Miami Center
Wed 01:20:20 PM 28.1094 -81.5408 21° North 466 536 36,000 750 Level Miami Center
Wed 01:21:20 PM 28.2350 -81.5294 North 444 511 37,500 1,350 Climbing Miami Center
Wed 01:22:20 PM 28.3581 -81.5297 360° North 439 505 38,700 667 Climbing Miami Center
Wed 01:23:35 PM 28.5100 -81.5272 North 475 547 39,000 132 Climbing Jacksonville Center
Wed 01:24:36 PM 28.6311 -81.5256 North 452 520 39,000  Level Jacksonville Center
Wed 01:25:36 PM 28.7603 -81.5236 North 447 514 39,000 300 Level Jacksonville Center
Wed 01:26:36 PM 28.8894 -81.5006 North 453 521 39,600 800 Climbing Jacksonville Center
Wed 01:27:36 PM 29.0167 -81.4775 North 464 534 40,600 706 Climbing Jacksonville Center
Wed 01:28:35 PM 29.1478 -81.4494 11° North 469 540 41,000 202 Climbing Jacksonville Center
Wed 01:29:35 PM 29.2769 -81.4236 10° North 469 540 41,000  Level Jacksonville Center
Wed 01:30:35 PM 29.4061 -81.4003 North 463 533 41,000  Level Jacksonville Center
Wed 01:31:36 PM 29.5433 -81.3719 10° North 463 533 41,000  Level Jacksonville Center
Wed 01:32:35 PM 29.6725 -81.3436 11° North 463 533 41,000  Level Jacksonville Center
Wed 01:33:35 PM 29.8039 -81.3200 North 468 539 41,000  Level Jacksonville Center
Wed 01:34:35 PM 29.9289 -81.2989 North 468 539 41,000  Level Jacksonville Center
Wed 01:35:35 PM 30.0581 -81.2775 North 463 533 41,000  Level Jacksonville Center
Wed 01:36:35 PM 30.1850 -81.2536 North 463 533 41,000  Level Jacksonville Center
Wed 01:37:35 PM 30.3103 -81.2611 357° North 458 527 41,000  Level Jacksonville Center
Wed 01:38:35 PM 30.4397 -81.2567 North 453 521 41,000  Level Jacksonville Center
Wed 01:39:36 PM 30.5650 -81.2569 360° North 458 527 41,000  Level Jacksonville Center
Wed 01:40:36 PM 30.6903 -81.2522 North 458 527 41,000  Level Jacksonville Center
Wed 01:41:36 PM 30.8197 -81.2453 North 458 527 41,000  Level Jacksonville Center
Wed 01:42:36 PM 30.9447 -81.2431 North 458 527 41,000  Level Jacksonville Center
Wed 01:43:35 PM 31.0700 -81.2383 North 458 527 41,000  Level Jacksonville Center
Wed 01:44:36 PM 31.1931 -81.2339 North 441 507 41,000  Level Jacksonville Center
Wed 01:45:36 PM 31.3183 -81.2317 North 441 507 41,000  Level Jacksonville Center
Wed 01:46:36 PM 31.4414 -81.2244 North 442 509 41,000  Level Jacksonville Center
Wed 01:47:35 PM 31.5667 -81.2100 North 442 509 41,000  Level Jacksonville Center
Wed 01:48:36 PM 31.6719 -81.1300 33° Northeast 459 528 41,000  Level Jacksonville Center
Wed 01:49:36 PM 31.7958 -81.0203 37° Northeast 496 571 41,000  Level Jacksonville Center
Wed 01:50:36 PM 31.8986 -80.9300 37° Northeast 508 585 41,000  Level Jacksonville Center
Wed 01:51:36 PM 32.0222 -80.8194 37° Northeast 508 585 41,000  Level Jacksonville Center
Wed 01:52:36 PM 32.1375 -80.7189 36° Northeast 500 575 41,000  Level Jacksonville Center
Wed 01:53:36 PM 32.2483 -80.6181 38° Northeast 500 575 41,000  Level Jacksonville Center
Wed 01:54:36 PM 32.3636 -80.5192 36° Northeast 505 581 41,000  Level Jacksonville Center
Wed 01:55:36 PM 32.4742 -80.4153 38° Northeast 505 581 41,000  Level Jacksonville Center
Wed 01:56:35 PM 32.5869 -80.3161 37° Northeast 500 575 41,000  Level Jacksonville Center
Wed 01:57:36 PM 32.6997 -80.2117 38° Northeast 500 575 41,000  Level Jacksonville Center
Wed 01:58:36 PM 32.8125 -80.1119 37° Northeast 500 575 41,000  Level Jacksonville Center
Wed 01:59:35 PM 32.9269 -80.0119 36° Northeast 500 575 41,000  Level Jacksonville Center
Wed 02:00:36 PM 33.0461 -79.9239 32° Northeast 500 575 41,000  Level Jacksonville Center
Wed 02:01:36 PM 33.1692 -79.8353 31° Northeast 505 581 41,000  Level Jacksonville Center
Wed 02:02:36 PM 33.2903 -79.7492 31° Northeast 505 581 41,000  Level Jacksonville Center
Wed 02:03:36 PM 33.4089 -79.6628 31° Northeast 505 581 41,000  Level Jacksonville Center
Wed 02:04:36 PM 33.5297 -79.5739 32° Northeast 505 581 41,000  Level Jacksonville Center
Wed 02:05:36 PM 33.6486 -79.4844 32° Northeast 505 581 41,000  Level Jacksonville Center
Wed 02:06:36 PM 33.7650 -79.4000 31° Northeast 505 581 41,000  Level Jacksonville Center
Wed 02:07:36 PM 33.8878 -79.3128 31° Northeast 499 574 41,000  Level Jacksonville Center
Wed 02:08:35 PM 34.0083 -79.2200 33° Northeast 504 580 41,000  Level Jacksonville Center
Wed 02:10:06 PM 34.1853 -79.0914 31° Northeast 501 577 41,000  Level Washington Center
Wed 02:11:06 PM 34.3125 -79.0264 23° Northeast 495 570 41,000  Level Washington Center
Wed 02:12:04 PM 34.4417 -78.9589 23° Northeast 490 564 41,000  Level Washington Center
Wed 02:13:05 PM 34.5708 -78.8883 24° Northeast 490 564 41,000  Level Washington Center
Wed 02:14:06 PM 34.7000 -78.8231 23° Northeast 495 570 41,000  Level Washington Center
Wed 02:15:06 PM 34.8289 -78.7572 23° Northeast 495 570 41,000  Level Washington Center
Wed 02:16:04 PM 34.9581 -78.6889 23° Northeast 500 575 41,000  Level Washington Center
Wed 02:17:04 PM 35.0869 -78.6228 23° Northeast 505 581 41,000  Level Washington Center
Wed 02:18:05 PM 35.2139 -78.5561 23° Northeast 499 574 41,000  Level Washington Center
Wed 02:19:05 PM 35.3367 -78.4869 25° Northeast 499 574 41,000  Level Washington Center
Wed 02:20:03 PM 35.4717 -78.4206 22° Northeast 505 581 41,000  Level Washington Center
Wed 02:21:04 PM 35.5922 -78.3533 24° Northeast 510 587 41,000  Level Washington Center
Wed 02:22:05 PM 35.7189 -78.2911 22° Northeast 500 575 41,000  Level Washington Center
Wed 02:23:06 PM 35.8456 -78.2236 23° Northeast 500 575 41,000 -458 Level Washington Center
Wed 02:24:03 PM 35.9764 -78.1561 23° Northeast 500 575 40,100 -1,678 Descending Washington Center
Wed 02:25:04 PM 36.1050 -78.0883 23° Northeast 500 575 37,700 -2,488 Descending Washington Center
Wed 02:26:06 PM 36.2317 -78.0203 23° Northeast 495 570 35,000 -2,924 Descending Washington Center
Wed 02:27:03 PM 36.3583 -77.9494 24° Northeast 495 570 31,900 -2,924 Descending Washington Center
Wed 02:28:05 PM 36.4953 -77.8758 23° Northeast 490 564 29,200 -1,623 Descending Washington Center
Wed 02:29:05 PM 36.6197 -77.8072 24° Northeast 485 558 28,600 -942 Descending Washington Center
Wed 02:30:06 PM 36.7461 -77.7381 24° Northeast 485 558 27,300 -807 Descending Washington Center
Wed 02:31:04 PM 36.8725 -77.6689 24° Northeast 480 552 27,000 -153 Descending Washington Center
Wed 02:32:04 PM 36.9967 -77.6022 23° Northeast 480 552 27,000  Level Washington Center
Wed 02:33:05 PM 37.1208 -77.5325 24° Northeast 480 552 27,000  Level Washington Center
Wed 02:34:06 PM 37.2472 -77.4625 24° Northeast 480 552 27,000 -807 Level Washington Center
Wed 02:35:04 PM 37.3714 -77.3950 23° Northeast 480 552 25,400 -1,966 Descending Washington Center
Wed 02:36:05 PM 37.4911 -77.3297 23° Northeast 480 552 23,100 -1,180 Descending Washington Center
Wed 02:37:06 PM 37.6147 -77.2986 11° North 468 539 23,000 -50 Descending Washington Center
Wed 02:38:06 PM 37.7361 -77.2722 10° North 450 518 23,000  Level Washington Center
Wed 02:39:05 PM 37.8572 -77.2461 10° North 445 512 23,000 -303 Level Washington Center
Wed 02:40:05 PM 37.9808 -77.2197 10° North 445 512 22,400 -1,563 Descending Washington Center
Wed 02:41:04 PM 38.1042 -77.1989 North 445 512 19,900 -2,370 Descending Washington Center
Wed 02:42:04 PM 38.2150 -77.1719 11° North 437 503 17,700 -1,934 Descending Washington Center
Wed 02:43:05 PM 38.3300 -77.1506 North 423 487 16,000 -1,785 Descending Washington Center
Wed 02:44:05 PM 38.4308 -77.0839 27° Northeast 395 455 14,100 -1,881 Descending Washington Center
Wed 02:45:03 PM 38.5175 -76.9769 44° Northeast 407 468 12,300 -1,916 Descending Washington Center
Wed 02:46:04 PM 38.6022 -76.8747 43° Northeast 412 474 10,300 -1,180 Descending Washington Center
Wed 02:47:05 PM 38.6697 -76.7908 44° Northeast 398 458 9,900 -1,033 Descending Washington Center
Wed 02:48:06 PM 38.7247 -76.6986 53° Northeast 358 412 8,200 -1,488 Descending Washington Center
Wed 02:49:06 PM 38.7675 -76.6008 61° Northeast 330 380 6,900 -1,070 Descending Washington Center
Wed 02:50:15 PM 38.8500 -76.5167 38° Northeast 272 313 5,900 -884 Descending Potomac TRACON
Wed 02:51:15 PM 38.9167 -76.5167 360° North 223 257 5,000 -950 Descending Potomac TRACON
Wed 02:52:15 PM 38.9667 -76.5000 15° North 219 252 4,000 -500 Descending Potomac TRACON
Wed 02:53:15 PM 39.0167 -76.5167 345° North 156 180 4,000 -421 Level Potomac TRACON
Wed 02:54:09 PM 39.0500 -76.5500 322° Northwest 145 167 3,200 -842 Descending Potomac TRACON
Wed 02:55:09 PM 39.0667 -76.5833 303° West 142 163 2,400 -800 Descending Potomac TRACON
Wed 02:56:09 PM 39.1000 -76.6167 322° Northwest 136 157 1,600 -750 Descending Potomac TRACON
Wed 02:57:09 PM 39.1333 -76.6333 339° North 123 142 900 -700 Descending Potomac TRACON
Wed 02:59:00 PM 39.1667 -76.6667 339° North  Level FlightAware Approximate
Wed 03:06:00 PM 39.1754 -76.6683 339° North  Level Estimated
Wed 03:07:00 PM 39.1754 -76.6683 339° North  Level Estimated
Wed 03:08:00 PM 39.1754 -76.6683 339° North  Level Estimated
Wed 03:09:00 PM 39.1754 -76.6683 339° North  Level Estimated
Wed 03:10:00 PM 39.1754 -76.6683 339° North  Level Estimated

Login

Don't have an account? Register now (free) for customized features, flight alerts, and more!